Time;durP1;ratioP1;P1;durP2;ratioP2;P2;SDS_P1;SDS_P2;PMS_P1;PMS_P2;Temp;Humidity;BMP_temperature;BMP_pressure;BME280_temperature;BME280_humidity;BME280_pressure;Samples;Min_cycle;Max_cycle;Signal;HPM_P1;HPM_P2
2023/05/20 00:01:07;;;;;;;5.50;4.17;;;16.00;86.80;;;;;;5075546;28;20475;-61
2023/05/20 00:03:33;;;;;;;6.00;3.60;;;16.10;88.00;;;;;;5049426;27;20481;-61
2023/05/20 00:06:00;;;;;;;7.53;4.33;;;16.10;87.40;;;;;;5096513;27;20985;-61
2023/05/20 00:08:28;;;;;;;4.70;3.67;;;16.10;87.30;;;;;;5078016;27;20477;-61
2023/05/20 00:10:55;;;;;;;7.43;3.60;;;16.00;88.10;;;;;;5096333;27;21343;-61
2023/05/20 00:13:23;;;;;;;7.70;3.67;;;16.00;86.60;;;;;;5079581;28;20838;-61
2023/05/20 00:15:49;;;;;;;5.17;3.70;;;15.70;86.90;;;;;;5067300;28;20901;-61
2023/05/20 00:18:16;;;;;;;7.90;3.60;;;16.00;87.40;;;;;;5087931;27;20495;-61
2023/05/20 00:20:43;;;;;;;3.53;3.23;;;15.20;86.90;;;;;;5085930;27;20546;-61
2023/05/20 00:23:10;;;;;;;4.40;3.43;;;15.90;87.00;;;;;;5090436;27;20470;-61
2023/05/20 00:25:38;;;;;;;5.10;3.20;;;15.90;87.40;;;;;;5071681;28;20474;-61
2023/05/20 00:28:06;;;;;;;4.00;3.67;;;16.00;87.80;;;;;;5064850;28;20596;-61
2023/05/20 00:30:33;;;;;;;6.30;3.43;;;15.90;87.20;;;;;;5083108;27;20526;-61
2023/05/20 00:33:00;;;;;;;6.43;3.53;;;15.90;87.70;;;;;;5073275;27;20687;-61
2023/05/20 00:35:26;;;;;;;6.93;3.80;;;15.90;87.10;;;;;;5064296;28;20833;-61
2023/05/20 00:37:53;;;;;;;6.10;4.23;;;15.90;87.00;;;;;;5067995;27;20551;-61
2023/05/20 00:40:21;;;;;;;4.00;3.60;;;15.90;87.50;;;;;;5075672;27;20846;-61
2023/05/20 00:42:49;;;;;;;4.17;3.77;;;15.90;87.40;;;;;;5085192;27;20558;-61
2023/05/20 00:45:16;;;;;;;5.53;3.70;;;15.90;87.00;;;;;;5066489;28;21055;-61
2023/05/20 00:47:43;;;;;;;4.17;3.70;;;15.90;87.50;;;;;;5072031;27;20532;-61
2023/05/20 00:50:11;;;;;;;4.97;3.80;;;15.90;87.20;;;;;;5070580;27;20501;-61
2023/05/20 00:52:38;;;;;;;5.23;3.40;;;15.90;87.40;;;;;;5063994;28;20581;-62
2023/05/20 00:55:05;;;;;;;3.73;3.43;;;15.90;87.30;;;;;;5062618;28;20994;-61
2023/05/20 00:57:32;;;;;;;4.30;3.50;;;15.90;87.50;;;;;;5069719;28;20470;-61
2023/05/20 01:00:01;;;;;;;5.30;3.93;;;15.90;87.50;;;;;;5074654;27;20465;-61
2023/05/20 01:02:28;;;;;;;7.80;3.10;;;15.90;87.50;;;;;;5083293;27;20480;-61
2023/05/20 01:04:55;;;;;;;3.90;3.53;;;15.80;87.80;;;;;;5072637;28;20523;-61
2023/05/20 01:07:23;;;;;;;6.40;4.10;;;15.80;88.30;;;;;;5068208;28;20521;-61
2023/05/20 01:09:51;;;;;;;4.40;4.00;;;15.80;88.10;;;;;;5058473;28;20524;-61
2023/05/20 01:12:22;;;;;;;4.30;3.80;;;15.80;87.90;;;;;;5061979;27;21138;-61
2023/05/20 01:14:50;;;;;;;3.90;3.00;;;15.80;88.20;;;;;;5049003;28;20889;-61
2023/05/20 01:17:21;;;;;;;3.93;3.63;;;15.80;88.00;;;;;;5071290;28;20467;-62
2023/05/20 01:19:48;;;;;;;5.70;3.50;;;15.80;88.50;;;;;;5081757;27;20481;-61
2023/05/20 01:22:16;;;;;;;4.17;2.83;;;15.80;88.80;;;;;;5070177;27;20475;-61
2023/05/20 01:24:47;;;;;;;3.77;3.40;;;15.80;88.20;;;;;;5061654;28;20532;-61
2023/05/20 01:27:14;;;;;;;5.80;4.20;;;15.80;87.70;;;;;;5068183;28;20481;-61
2023/05/20 01:29:42;;;;;;;4.30;3.70;;;15.80;88.60;;;;;;5063499;28;20901;-61
2023/05/20 01:32:12;;;;;;;4.23;3.73;;;15.80;88.70;;;;;;5065882;28;20486;-61
2023/05/20 01:34:41;;;;;;;4.70;4.20;;;15.80;89.20;;;;;;5052905;28;20474;-61
2023/05/20 01:37:08;;;;;;;4.17;3.77;;;15.80;89.10;;;;;;5065144;27;21032;-61
2023/05/20 01:39:38;;;;;;;4.73;3.23;;;15.80;88.60;;;;;;5084029;27;20747;-61
2023/05/20 01:42:08;;;;;;;4.53;4.13;;;15.80;88.60;;;;;;5060956;27;20494;-61
2023/05/20 01:44:35;;;;;;;9.03;4.00;;;15.80;88.70;;;;;;5078426;28;20470;-61
2023/05/20 01:47:03;;;;;;;6.67;3.53;;;15.80;89.00;;;;;;5080899;27;20472;-61
2023/05/20 01:49:30;;;;;;;4.37;3.80;;;15.90;89.40;;;;;;5078254;28;20486;-61
2023/05/20 01:52:00;;;;;;;4.53;3.97;;;15.70;88.60;;;;;;5063125;28;20581;-61
2023/05/20 01:54:27;;;;;;;4.40;3.33;;;15.70;89.20;;;;;;5072425;28;20481;-61
2023/05/20 01:56:54;;;;;;;5.47;3.97;;;15.70;89.30;;;;;;5064263;28;21047;-61
2023/05/20 01:59:22;;;;;;;6.60;3.90;;;15.70;89.30;;;;;;5068850;27;21046;-61
2023/05/20 02:01:49;;;;;;;6.20;3.40;;;15.70;89.40;;;;;;5096576;27;20476;-61
2023/05/20 02:04:17;;;;;;;4.40;4.00;;;15.60;89.20;;;;;;5043038;27;20485;-61
2023/05/20 02:06:44;;;;;;;6.03;3.70;;;15.60;89.20;;;;;;5095394;27;20480;-61
2023/05/20 02:09:11;;;;;;;4.80;3.90;;;15.70;89.80;;;;;;5075321;27;20462;-61
2023/05/20 02:11:38;;;;;;;5.07;4.17;;;15.60;89.70;;;;;;5071343;28;20592;-61
2023/05/20 02:14:05;;;;;;;5.23;4.10;;;15.60;89.70;;;;;;5069829;28;20781;-61
2023/05/20 02:16:33;;;;;;;7.40;4.60;;;15.60;89.80;;;;;;5071055;28;20482;-62
2023/05/20 02:19:00;;;;;;;3.90;3.60;;;15.50;90.00;;;;;;5066925;27;20481;-61
2023/05/20 02:21:27;;;;;;;8.17;3.77;;;15.50;90.10;;;;;;5078895;27;20482;-61
2023/05/20 02:23:54;;;;;;;5.57;4.10;;;15.50;90.10;;;;;;5066551;27;20469;-61
2023/05/20 02:26:21;;;;;;;6.73;4.13;;;15.40;89.70;;;;;;5070089;27;20485;-61
2023/05/20 02:28:50;;;;;;;6.87;4.60;;;15.40;90.10;;;;;;5061021;28;20474;-61
2023/05/20 02:31:20;;;;;;;3.70;3.40;;;15.40;90.20;;;;;;5069698;27;20550;-61
2023/05/20 02:33:51;;;;;;;6.40;3.90;;;15.30;90.20;;;;;;5081591;27;20551;-61
2023/05/20 02:36:18;;;;;;;7.97;4.17;;;15.30;90.30;;;;;;5067890;27;20481;-61
2023/05/20 02:38:45;;;;;;;5.50;4.50;;;15.30;90.30;;;;;;5081772;28;20993;-61
2023/05/20 02:41:11;;;;;;;5.30;3.83;;;15.20;90.30;;;;;;5084206;28;20913;-61
2023/05/20 02:43:39;;;;;;;7.40;4.90;;;15.10;90.40;;;;;;5087810;27;20827;-61
2023/05/20 02:46:06;;;;;;;6.70;5.10;;;15.00;90.10;;;;;;5073198;27;21002;-61
2023/05/20 02:48:33;;;;;;;4.80;4.40;;;15.00;90.30;;;;;;5090207;27;20579;-61
2023/05/20 02:51:01;;;;;;;10.30;4.90;;;14.90;90.50;;;;;;5076916;27;20886;-61
2023/05/20 02:53:28;;;;;;;6.87;4.60;;;14.90;90.50;;;;;;5081020;28;20516;-61
2023/05/20 02:55:55;;;;;;;5.20;4.70;;;14.80;90.50;;;;;;5072756;27;20802;-61
2023/05/20 02:58:25;;;;;;;5.77;3.70;;;14.70;90.40;;;;;;5075305;27;20489;-61
2023/05/20 03:00:52;;;;;;;5.70;4.13;;;14.60;90.50;;;;;;5086642;27;20479;-61
2023/05/20 03:03:18;;;;;;;4.10;3.80;;;14.60;90.70;;;;;;5094492;28;20497;-61
2023/05/20 03:05:45;;;;;;;5.23;4.30;;;14.50;90.70;;;;;;5072534;28;20496;-61
2023/05/20 03:08:14;;;;;;;12.17;5.77;;;14.50;90.60;;;;;;5059338;27;20522;-61
2023/05/20 03:10:41;;;;;;;8.57;4.13;;;14.50;90.90;;;;;;5072885;27;20481;-61
2023/05/20 03:13:10;;;;;;;7.10;4.47;;;14.40;90.80;;;;;;5080961;27;20473;-61
2023/05/20 03:15:37;;;;;;;4.47;4.07;;;14.50;90.80;;;;;;5092553;27;20563;-61
2023/05/20 03:18:04;;;;;;;7.90;5.23;;;14.40;90.80;;;;;;5087039;27;20481;-61
2023/05/20 03:20:31;;;;;;;5.93;4.20;;;14.30;90.90;;;;;;5087379;28;20489;-61
2023/05/20 03:22:58;;;;;;;7.83;5.00;;;14.20;91.10;;;;;;5066347;27;20567;-61
2023/05/20 03:25:27;;;;;;;5.90;4.77;;;14.20;91.10;;;;;;5094864;27;20520;-61
2023/05/20 03:27:54;;;;;;;8.83;4.13;;;14.10;91.20;;;;;;5078039;28;20471;-61
2023/05/20 03:30:22;;;;;;;5.00;4.50;;;14.10;91.30;;;;;;5070017;27;20475;-61
2023/05/20 03:32:49;;;;;;;4.43;4.03;;;14.00;91.50;;;;;;5070592;27;20483;-61
2023/05/20 03:35:16;;;;;;;4.90;4.40;;;13.90;91.40;;;;;;5097039;27;20481;-61
2023/05/20 03:37:43;;;;;;;9.60;3.90;;;14.00;91.60;;;;;;5085256;27;20723;-61
2023/05/20 03:40:10;;;;;;;9.67;4.47;;;13.90;91.60;;;;;;5098304;27;20481;-61
2023/05/20 03:42:39;;;;;;;5.47;4.53;;;13.90;91.60;;;;;;5070814;28;20473;-62
2023/05/20 03:45:07;;;;;;;5.87;5.30;;;13.90;91.80;;;;;;5075922;28;21070;-61
2023/05/20 03:47:34;;;;;;;6.00;4.90;;;13.90;91.80;;;;;;5086266;27;20473;-61
2023/05/20 03:50:00;;;;;;;6.67;5.40;;;13.90;91.90;;;;;;5095912;27;20512;-61
2023/05/20 03:52:27;;;;;;;5.07;4.23;;;13.90;91.70;;;;;;5066751;27;20480;-61
2023/05/20 03:54:54;;;;;;;7.73;5.47;;;13.90;91.90;;;;;;5113437;27;20569;-61
2023/05/20 03:57:21;;;;;;;5.37;4.87;;;13.90;92.10;;;;;;5076428;27;20509;-60
2023/05/20 03:59:50;;;;;;;6.23;4.87;;;13.90;92.10;;;;;;5073168;28;20478;-60
2023/05/20 04:02:16;;;;;;;6.87;5.57;;;13.90;92.00;;;;;;5081846;27;20983;-61
2023/05/20 04:04:43;;;;;;;4.80;3.97;;;13.90;92.10;;;;;;5085348;28;20486;-61
2023/05/20 04:07:10;;;;;;;6.63;5.07;;;14.00;92.20;;;;;;5072322;28;21010;-61
2023/05/20 04:09:38;;;;;;;5.27;4.77;;;14.00;92.20;;;;;;5068662;27;20550;-61
2023/05/20 04:12:05;;;;;;;6.47;5.87;;;14.00;92.20;;;;;;5086145;27;20871;-61
2023/05/20 04:14:33;;;;;;;4.83;4.43;;;14.00;91.90;;;;;;5077968;28;20473;-60
2023/05/20 04:17:03;;;;;;;6.17;5.67;;;14.10;92.30;;;;;;5072588;27;20479;-60
2023/05/20 04:19:30;;;;;;;4.97;4.43;;;14.00;92.10;;;;;;5066680;28;20836;-61
2023/05/20 04:21:57;;;;;;;6.57;4.50;;;14.00;92.20;;;;;;5086142;27;20468;-61
2023/05/20 04:24:24;;;;;;;6.83;4.47;;;14.00;92.00;;;;;;5074113;27;20994;-60
2023/05/20 04:26:51;;;;;;;5.87;4.83;;;14.00;92.30;;;;;;5104661;27;21043;-61
2023/05/20 04:29:18;;;;;;;8.17;6.67;;;14.00;92.30;;;;;;5077812;28;20926;-60
2023/05/20 04:31:45;;;;;;;6.80;4.77;;;14.00;92.40;;;;;;5072658;27;20498;-61
2023/05/20 04:34:18;;;;;;;5.33;4.83;;;14.10;92.50;;;;;;5080368;28;20765;-61
2023/05/20 04:36:45;;;;;;;5.63;5.13;;;14.10;92.30;;;;;;5069044;27;20480;-62
2023/05/20 04:39:12;;;;;;;7.77;5.13;;;14.10;92.60;;;;;;5075951;27;20497;-61
2023/05/20 04:41:39;;;;;;;8.43;4.97;;;14.10;92.50;;;;;;5072246;28;20481;-61
2023/05/20 04:44:07;;;;;;;5.23;4.73;;;14.20;92.50;;;;;;5077914;27;20519;-61
2023/05/20 04:46:34;;;;;;;5.53;4.90;;;14.20;92.50;;;;;;5080986;27;20970;-60
2023/05/20 04:49:00;;;;;;;6.23;5.63;;;14.20;92.50;;;;;;5107331;27;20768;-61
2023/05/20 04:51:29;;;;;;;10.00;4.90;;;14.30;92.50;;;;;;5066675;27;20591;-61
2023/05/20 04:53:57;;;;;;;6.90;5.80;;;14.30;92.40;;;;;;5082825;27;20902;-61
2023/05/20 04:56:24;;;;;;;7.23;4.67;;;14.20;92.30;;;;;;5092501;27;20567;-61
2023/05/20 04:58:51;;;;;;;5.70;4.97;;;14.20;92.40;;;;;;5069499;28;20797;-61
2023/05/20 05:01:18;;;;;;;9.90;4.90;;;14.30;92.70;;;;;;5063264;28;20564;-60
2023/05/20 05:03:45;;;;;;;5.20;4.50;;;14.20;92.50;;;;;;5070394;28;20509;-60
2023/05/20 05:06:12;;;;;;;5.40;4.90;;;14.20;92.60;;;;;;5092474;27;20489;-61
2023/05/20 05:08:40;;;;;;;9.40;6.33;;;14.20;92.80;;;;;;5086283;28;20830;-61
2023/05/20 05:11:07;;;;;;;5.63;4.77;;;14.30;92.80;;;;;;5092537;28;20482;-60
2023/05/20 05:13:34;;;;;;;9.10;5.67;;;14.30;92.90;;;;;;5059338;28;21298;-61
2023/05/20 05:16:02;;;;;;;7.60;5.00;;;14.40;92.90;;;;;;5086275;28;20470;-61
2023/05/20 05:18:28;;;;;;;6.00;5.13;;;14.40;92.90;;;;;;5087428;28;20476;-60
2023/05/20 05:21:00;;;;;;;6.63;5.40;;;14.40;92.50;;;;;;5091774;28;20488;-61
2023/05/20 05:23:27;;;;;;;6.77;5.87;;;14.10;92.60;;;;;;5087128;28;20473;-61
2023/05/20 05:25:56;;;;;;;6.43;5.77;;;14.50;92.70;;;;;;5079584;28;20473;-60
2023/05/20 05:28:23;;;;;;;7.60;4.37;;;14.60;92.70;;;;;;5085261;27;20480;-61
2023/05/20 05:30:49;;;;;;;7.87;5.27;;;14.70;93.20;;;;;;5069690;28;20476;-61
2023/05/20 05:33:17;;;;;;;6.73;4.80;;;14.80;93.00;;;;;;5069960;28;20497;-61
2023/05/20 05:35:44;;;;;;;5.30;4.80;;;14.90;92.40;;;;;;5085659;28;21243;-61
2023/05/20 05:38:11;;;;;;;5.50;4.90;;;15.10;92.70;;;;;;5073010;28;20489;-61
2023/05/20 05:40:37;;;;;;;9.40;5.67;;;15.10;92.90;;;;;;5075484;28;20888;-62
2023/05/20 05:43:06;;;;;;;6.87;6.17;;;15.20;92.30;;;;;;5061057;27;21021;-61
2023/05/20 05:45:32;;;;;;;7.57;5.13;;;15.20;92.50;;;;;;5087799;27;20528;-61
2023/05/20 05:47:59;;;;;;;7.03;5.90;;;15.20;92.70;;;;;;5049382;27;21046;-61
2023/05/20 05:50:26;;;;;;;5.57;5.03;;;15.20;92.70;;;;;;5070010;27;20488;-60
2023/05/20 05:52:53;;;;;;;5.73;4.73;;;15.20;92.70;;;;;;5089394;27;20450;-60
2023/05/20 05:55:20;;;;;;;7.03;5.60;;;15.30;93.00;;;;;;5071072;27;20468;-60
2023/05/20 05:57:46;;;;;;;6.63;5.80;;;15.30;92.90;;;;;;5100283;27;20487;-60
2023/05/20 06:00:16;;;;;;;7.67;5.30;;;15.30;92.90;;;;;;5092098;27;20476;-60
2023/05/20 06:02:43;;;;;;;5.80;5.20;;;15.40;93.20;;;;;;5040264;27;20499;-60
2023/05/20 06:05:10;;;;;;;14.57;5.37;;;15.60;93.00;;;;;;5085977;27;21009;-60
2023/05/20 06:07:37;;;;;;;6.07;4.97;;;15.60;93.30;;;;;;5078683;27;20770;-60
2023/05/20 06:10:04;;;;;;;6.50;5.87;;;15.80;93.20;;;;;;5099620;27;20895;-61
2023/05/20 06:12:31;;;;;;;5.50;4.93;;;16.40;93.20;;;;;;5091998;27;20593;-60
2023/05/20 06:14:58;;;;;;;10.53;6.70;;;16.70;92.60;;;;;;5078957;27;20489;-61
2023/05/20 06:17:26;;;;;;;6.73;5.10;;;16.70;92.90;;;;;;5089279;27;20481;-61
2023/05/20 06:19:53;;;;;;;6.20;5.60;;;17.00;93.70;;;;;;5071302;27;20477;-61
2023/05/20 06:22:20;;;;;;;7.40;5.50;;;17.10;92.80;;;;;;5084651;27;20475;-61
2023/05/20 06:24:47;;;;;;;10.77;5.50;;;17.20;92.60;;;;;;5087282;28;20465;-61
2023/05/20 06:27:14;;;;;;;6.97;5.17;;;17.20;92.50;;;;;;5080967;27;20988;-61
2023/05/20 06:29:41;;;;;;;8.10;6.60;;;17.20;92.60;;;;;;5082829;27;20477;-60
2023/05/20 06:32:08;;;;;;;6.50;5.20;;;17.30;92.00;;;;;;5089883;27;20496;-61
2023/05/20 06:34:36;;;;;;;7.27;5.30;;;17.40;92.30;;;;;;5083867;27;20789;-60
2023/05/20 06:37:03;;;;;;;8.70;5.90;;;17.50;92.00;;;;;;5062162;28;20485;-60
2023/05/20 06:39:30;;;;;;;7.20;5.43;;;17.70;92.40;;;;;;5072934;27;21138;-61
2023/05/20 06:41:57;;;;;;;6.00;5.50;;;17.90;92.70;;;;;;5086351;27;20701;-61
2023/05/20 06:44:24;;;;;;;5.70;5.10;;;18.20;92.70;;;;;;5091791;28;20478;-61
2023/05/20 06:46:50;;;;;;;6.80;5.47;;;18.40;91.80;;;;;;5095309;27;21175;-61
2023/05/20 06:49:17;;;;;;;5.43;4.90;;;18.60;91.30;;;;;;5080098;27;20487;-61
2023/05/20 06:51:45;;;;;;;7.67;5.60;;;18.60;91.30;;;;;;5073674;28;20569;-61
2023/05/20 06:54:12;;;;;;;5.57;5.07;;;18.50;91.60;;;;;;5086317;27;21004;-61
2023/05/20 06:56:39;;;;;;;8.93;5.50;;;18.40;91.70;;;;;;5079995;27;20623;-61
2023/05/20 06:59:06;;;;;;;6.60;5.00;;;18.30;91.40;;;;;;5076187;27;20818;-62
2023/05/20 07:01:33;;;;;;;5.40;4.90;;;18.50;91.70;;;;;;5087930;27;21023;-62
2023/05/20 07:04:00;;;;;;;5.83;5.30;;;18.50;91.90;;;;;;5070632;27;20722;-62
2023/05/20 07:06:29;;;;;;;6.23;5.70;;;18.60;91.80;;;;;;5087432;27;20482;-62
2023/05/20 07:08:57;;;;;;;7.80;5.70;;;18.80;91.80;;;;;;5077269;28;20485;-62
2023/05/20 07:11:24;;;;;;;6.77;5.50;;;18.80;90.90;;;;;;5073395;27;20803;-61
2023/05/20 07:13:52;;;;;;;6.60;5.40;;;18.60;91.10;;;;;;5066681;28;20482;-62
2023/05/20 07:16:19;;;;;;;5.30;4.77;;;18.40;91.30;;;;;;5089671;27;20843;-61
2023/05/20 07:18:45;;;;;;;6.67;6.07;;;18.40;91.40;;;;;;5089869;28;20473;-62
2023/05/20 07:21:12;;;;;;;6.33;5.70;;;18.40;91.10;;;;;;5067498;28;20854;-62
2023/05/20 07:23:39;;;;;;;6.07;5.27;;;18.50;91.70;;;;;;5081823;27;20833;-62
2023/05/20 07:26:07;;;;;;;5.83;5.33;;;18.80;92.10;;;;;;5107236;27;20919;-62
2023/05/20 07:28:35;;;;;;;7.13;5.30;;;19.10;92.20;;;;;;5080926;27;20935;-62
2023/05/20 07:31:02;;;;;;;8.17;5.50;;;19.50;91.80;;;;;;5074738;28;20985;-62
2023/05/20 07:33:29;;;;;;;6.40;5.80;;;19.80;90.90;;;;;;5072378;28;20465;-62
2023/05/20 07:35:56;;;;;;;6.50;5.90;;;19.90;91.00;;;;;;5083459;28;20474;-61
2023/05/20 07:38:23;;;;;;;7.93;5.37;;;19.90;90.90;;;;;;5079363;27;20470;-61
2023/05/20 07:40:50;;;;;;;7.00;5.70;;;19.60;90.60;;;;;;5085090;27;20474;-62
2023/05/20 07:43:18;;;;;;;6.57;5.87;;;19.50;91.00;;;;;;5099458;27;20469;-62
2023/05/20 07:45:45;;;;;;;7.60;5.50;;;19.20;90.90;;;;;;5093977;27;20473;-62
2023/05/20 07:48:12;;;;;;;8.57;5.83;;;19.20;91.00;;;;;;5070589;27;20498;-63
2023/05/20 07:50:41;;;;;;;7.47;6.20;;;19.10;91.30;;;;;;5107771;27;20485;-62
2023/05/20 07:53:08;;;;;;;7.60;6.23;;;19.00;91.50;;;;;;5058015;28;20513;-62
2023/05/20 07:55:36;;;;;;;9.00;5.90;;;18.90;91.30;;;;;;5076445;28;20483;-62
2023/05/20 07:58:03;;;;;;;10.30;5.60;;;18.80;91.80;;;;;;5057791;28;21171;-61
2023/05/20 08:00:31;;;;;;;7.13;6.03;;;18.80;91.60;;;;;;5097594;27;20477;-62
2023/05/20 08:02:58;;;;;;;6.37;5.73;;;18.80;91.70;;;;;;5081383;27;21068;-62
2023/05/20 08:05:25;;;;;;;7.50;6.23;;;18.70;91.40;;;;;;5082776;27;20495;-62
2023/05/20 08:07:52;;;;;;;6.60;6.00;;;18.70;91.60;;;;;;5090032;27;20499;-62
2023/05/20 08:10:19;;;;;;;14.53;5.60;;;18.70;91.90;;;;;;5076295;27;20484;-61
2023/05/20 08:12:47;;;;;;;8.37;6.33;;;18.80;92.20;;;;;;5082278;27;20836;-62
2023/05/20 08:15:13;;;;;;;6.10;5.50;;;18.70;91.30;;;;;;5079440;28;20479;-61
2023/05/20 08:17:42;;;;;;;6.83;6.13;;;18.70;92.00;;;;;;5072485;28;20519;-61
2023/05/20 08:20:11;;;;;;;9.13;6.30;;;18.70;92.20;;;;;;5073835;27;20487;-62
2023/05/20 08:22:38;;;;;;;10.20;6.30;;;18.70;92.20;;;;;;5088768;27;20472;-62
2023/05/20 08:25:08;;;;;;;8.13;7.33;;;18.80;92.20;;;;;;5069916;27;20730;-61
2023/05/20 08:27:35;;;;;;;11.13;6.30;;;18.90;92.50;;;;;;5080031;27;20481;-62
2023/05/20 08:30:02;;;;;;;7.10;6.17;;;19.00;92.50;;;;;;5079128;27;20513;-62
2023/05/20 08:32:30;;;;;;;10.13;7.83;;;19.10;92.20;;;;;;5087990;27;20482;-62
2023/05/20 08:35:00;;;;;;;8.67;6.80;;;19.20;92.10;;;;;;5085675;27;20489;-61
2023/05/20 08:37:27;;;;;;;6.60;6.00;;;19.20;92.50;;;;;;5087612;27;20479;-62
2023/05/20 08:39:54;;;;;;;7.80;5.80;;;19.40;92.00;;;;;;5064898;27;20551;-61
2023/05/20 08:42:23;;;;;;;6.90;6.23;;;19.50;92.10;;;;;;5085118;27;20523;-62
2023/05/20 08:44:51;;;;;;;7.53;6.83;;;19.70;92.30;;;;;;5083789;27;20479;-61
2023/05/20 08:47:19;;;;;;;7.90;5.87;;;20.00;93.00;;;;;;5079321;28;20495;-62
2023/05/20 08:49:46;;;;;;;10.63;6.90;;;20.00;93.00;;;;;;5076822;28;20499;-62
2023/05/20 08:52:16;;;;;;;14.60;6.43;;;20.30;92.50;;;;;;5072822;27;20474;-62
2023/05/20 08:54:45;;;;;;;6.60;5.90;;;20.80;91.60;;;;;;5086175;27;20990;-62
2023/05/20 08:57:12;;;;;;;10.50;7.00;;;20.90;90.80;;;;;;5084167;27;20474;-62
2023/05/20 08:59:41;;;;;;;7.77;7.07;;;21.00;90.70;;;;;;5094042;27;20858;-64
2023/05/20 09:02:09;;;;;;;13.83;6.40;;;21.10;91.40;;;;;;5084681;27;20477;-63
2023/05/20 09:04:35;;;;;;;7.50;6.00;;;21.30;91.40;;;;;;5071383;27;20480;-62
2023/05/20 09:07:03;;;;;;;7.63;6.80;;;21.30;90.20;;;;;;5078509;28;20479;-62
2023/05/20 09:09:33;;;;;;;10.67;8.00;;;21.30;90.10;;;;;;5093401;27;20784;-62
2023/05/20 09:12:01;;;;;;;7.87;6.73;;;21.30;90.50;;;;;;5053895;27;21130;-62
2023/05/20 09:14:28;;;;;;;13.00;6.80;;;21.40;90.90;;;;;;5104485;27;20470;-62
2023/05/20 09:16:55;;;;;;;7.50;6.80;;;21.60;91.60;;;;;;5077549;28;20478;-62
2023/05/20 09:19:22;;;;;;;10.10;6.87;;;21.80;90.40;;;;;;5082725;28;20478;-62
2023/05/20 09:21:52;;;;;;;7.70;7.00;;;21.80;90.00;;;;;;5070829;27;20534;-63
2023/05/20 09:24:22;;;;;;;11.43;7.00;;;21.90;90.50;;;;;;5075037;28;20478;-63
2023/05/20 09:26:51;;;;;;;7.30;6.10;;;22.00;91.20;;;;;;5080351;28;20484;-62
2023/05/20 09:29:18;;;;;;;7.87;7.07;;;22.10;91.40;;;;;;5077398;28;20487;-62
2023/05/20 09:31:45;;;;;;;8.97;7.90;;;22.30;90.50;;;;;;5080186;28;20575;-62
2023/05/20 09:34:13;;;;;;;7.10;6.30;;;22.30;90.30;;;;;;5057681;27;20566;-62
2023/05/20 09:36:41;;;;;;;7.03;6.33;;;22.30;90.50;;;;;;5094450;28;20469;-62
2023/05/20 09:39:12;;;;;;;8.43;7.63;;;22.30;90.00;;;;;;5075333;28;20475;-62
2023/05/20 09:41:45;;;;;;;10.73;7.07;;;22.30;90.60;;;;;;5072146;28;20492;-62
2023/05/20 09:44:15;;;;;;;7.80;6.87;;;22.40;89.30;;;;;;5087440;27;20478;-62
2023/05/20 09:46:43;;;;;;;12.57;7.97;;;22.20;90.30;;;;;;5064785;28;20847;-62
2023/05/20 09:49:11;;;;;;;6.73;6.13;;;22.20;89.60;;;;;;5072605;28;20485;-63
2023/05/20 09:51:38;;;;;;;8.17;6.80;;;22.30;90.60;;;;;;5084472;27;20530;-63
2023/05/20 09:54:07;;;;;;;7.77;7.07;;;22.20;90.20;;;;;;5088100;28;20912;-63
2023/05/20 09:56:35;;;;;;;9.03;7.03;;;22.10;90.10;;;;;;5078967;28;20788;-62
2023/05/20 09:59:05;;;;;;;10.63;7.93;;;22.10;91.20;;;;;;5073820;27;20460;-62
2023/05/20 10:01:33;;;;;;;8.40;7.60;;;22.10;89.40;;;;;;5096153;27;20944;-62
2023/05/20 10:04:01;;;;;;;8.57;7.70;;;22.10;91.00;;;;;;5057250;28;20475;-63
2023/05/20 10:06:58;;;;;;;7.47;6.73;;;21.90;90.30;;;;;;5099201;28;20661;-62
2023/05/20 10:09:41;;;;;;;8.77;7.67;;;21.90;90.70;;;;;;5040439;28;20560;-63
2023/05/20 10:12:15;;;;;;;8.87;7.97;;;22.00;90.80;;;;;;5105037;27;21036;-63
2023/05/20 10:14:55;;;;;;;8.17;7.17;;;22.30;91.30;;;;;;5087393;28;20471;-63
2023/05/20 10:17:31;;;;;;;9.83;7.50;;;22.60;91.00;;;;;;5065827;28;20957;-62
2023/05/20 10:19:59;;;;;;;10.97;8.10;;;22.80;90.90;;;;;;5088183;27;20526;-63
2023/05/20 10:22:30;;;;;;;7.33;6.57;;;22.70;89.20;;;;;;5101804;27;21052;-63
2023/05/20 10:25:01;;;;;;;8.03;7.23;;;22.80;90.30;;;;;;5073472;27;21136;-63
2023/05/20 10:27:27;;;;;;;11.30;7.10;;;22.70;90.40;;;;;;5071895;27;20473;-63
2023/05/20 10:29:56;;;;;;;9.83;6.93;;;22.60;89.70;;;;;;5086248;27;20485;-63
2023/05/20 10:32:28;;;;;;;11.30;8.20;;;22.50;90.50;;;;;;5091839;27;20473;-62
2023/05/20 10:35:00;;;;;;;13.30;7.63;;;22.60;91.20;;;;;;5074938;28;20490;-63
2023/05/20 10:37:29;;;;;;;8.57;7.70;;;22.80;91.70;;;;;;5068068;27;20478;-63
2023/05/20 10:40:10;;;;;;;8.03;7.30;;;22.90;90.20;;;;;;5050370;27;20480;-63
2023/05/20 10:42:37;;;;;;;8.97;7.67;;;23.00;90.90;;;;;;5097997;27;21296;-62
2023/05/20 10:45:05;;;;;;;8.50;7.60;;;23.10;90.10;;;;;;5096312;28;20834;-62
2023/05/20 10:47:33;;;;;;;7.73;7.03;;;23.10;88.40;;;;;;5092013;28;21042;-63
2023/05/20 10:50:00;;;;;;;7.77;7.07;;;22.90;90.20;;;;;;5085891;28;20825;-63
2023/05/20 10:52:28;;;;;;;7.63;6.93;;;22.90;90.40;;;;;;5081511;27;20481;-62
2023/05/20 10:54:57;;;;;;;7.63;6.50;;;23.00;90.50;;;;;;5083836;27;21322;-63
2023/05/20 10:57:25;;;;;;;8.80;6.73;;;23.20;90.10;;;;;;5078087;27;20910;-62
2023/05/20 10:59:53;;;;;;;9.37;7.10;;;23.30;90.00;;;;;;5091075;27;20485;-63
2023/05/20 11:02:25;;;;;;;10.10;6.73;;;23.40;89.30;;;;;;5077588;27;20474;-64
2023/05/20 11:04:53;;;;;;;8.27;7.37;;;23.30;89.60;;;;;;5076396;27;20581;-63
2023/05/20 11:07:27;;;;;;;7.90;7.10;;;23.30;88.20;;;;;;5076348;27;20493;-63
2023/05/20 11:09:54;;;;;;;7.90;7.20;;;23.40;89.60;;;;;;5079342;27;20902;-63
2023/05/20 11:12:22;;;;;;;10.40;7.57;;;23.40;86.50;;;;;;5071964;28;20481;-63
2023/05/20 11:14:49;;;;;;;8.63;6.57;;;23.40;88.00;;;;;;5078778;28;20487;-63
2023/05/20 11:17:16;;;;;;;7.83;7.13;;;23.40;89.10;;;;;;5091875;27;20485;-63
2023/05/20 11:19:43;;;;;;;9.03;8.13;;;23.40;89.10;;;;;;5080580;27;20563;-63
2023/05/20 11:22:11;;;;;;;7.50;6.80;;;23.70;90.80;;;;;;5072187;27;20491;-62
2023/05/20 11:24:38;;;;;;;14.13;7.03;;;24.00;89.80;;;;;;5086019;27;20477;-62
2023/05/20 11:27:06;;;;;;;9.63;7.50;;;24.10;90.40;;;;;;5087206;27;20464;-63
2023/05/20 11:29:34;;;;;;;7.83;7.03;;;24.30;90.60;;;;;;5091226;27;20482;-63
2023/05/20 11:32:01;;;;;;;8.83;8.00;;;24.20;88.30;;;;;;5075967;27;20490;-63
2023/05/20 11:34:34;;;;;;;10.63;8.03;;;24.30;88.30;;;;;;5079994;27;21104;-63
2023/05/20 11:37:01;;;;;;;15.70;7.83;;;24.10;87.20;;;;;;5087060;27;20483;-63
2023/05/20 11:39:31;;;;;;;8.30;7.40;;;24.20;88.90;;;;;;5069188;27;20479;-63
2023/05/20 11:41:58;;;;;;;8.13;7.40;;;24.20;87.20;;;;;;5094223;27;20460;-63
2023/05/20 11:44:26;;;;;;;7.43;6.83;;;24.20;87.80;;;;;;5100026;27;20860;-63
2023/05/20 11:47:00;;;;;;;8.37;7.43;;;24.00;87.70;;;;;;5094927;27;20913;-63
2023/05/20 11:49:26;;;;;;;14.17;7.97;;;23.90;88.20;;;;;;5079920;27;20491;-63
2023/05/20 11:51:53;;;;;;;8.93;7.77;;;24.00;89.20;;;;;;5075263;28;20483;-62
2023/05/20 11:54:23;;;;;;;9.63;7.10;;;24.00;88.10;;;;;;5075201;27;20485;-64
2023/05/20 11:56:51;;;;;;;7.80;7.10;;;24.20;86.70;;;;;;5087000;28;20445;-63
2023/05/20 11:59:18;;;;;;;8.17;7.37;;;24.30;87.30;;;;;;5085319;27;20441;-63
2023/05/20 12:01:45;;;;;;;8.00;7.30;;;24.60;87.90;;;;;;5073732;28;20451;-63
2023/05/20 12:04:13;;;;;;;7.80;7.10;;;24.50;87.30;;;;;;5073018;27;20714;-63
2023/05/20 12:06:41;;;;;;;10.17;7.70;;;24.40;87.30;;;;;;5081681;27;20544;-63
2023/05/20 12:09:09;;;;;;;8.40;7.13;;;24.50;87.40;;;;;;5085632;27;20521;-63
2023/05/20 12:11:36;;;;;;;8.20;7.40;;;24.50;87.40;;;;;;5090863;28;20964;-63
2023/05/20 12:14:04;;;;;;;8.13;7.33;;;24.70;89.00;;;;;;5072705;27;21207;-63
2023/05/20 12:16:33;;;;;;;8.77;7.80;;;24.70;87.50;;;;;;5073971;27;20478;-63
2023/05/20 12:19:00;;;;;;;8.47;7.60;;;25.00;88.10;;;;;;5092475;27;20974;-63
2023/05/20 12:21:28;;;;;;;8.57;7.30;;;25.10;87.10;;;;;;5084247;28;20479;-63
2023/05/20 12:23:56;;;;;;;8.83;7.93;;;25.10;87.60;;;;;;5086144;27;20477;-63
2023/05/20 12:26:23;;;;;;;10.20;8.10;;;24.90;85.50;;;;;;5090887;27;20540;-63
2023/05/20 12:28:50;;;;;;;14.77;6.43;;;24.70;85.50;;;;;;5085890;27;20923;-63
2023/05/20 12:31:18;;;;;;;9.53;6.90;;;24.60;85.10;;;;;;5088450;27;20517;-63
2023/05/20 12:33:45;;;;;;;9.27;7.77;;;24.30;86.60;;;;;;5070463;27;20490;-63
2023/05/20 12:36:12;;;;;;;9.33;8.33;;;24.30;87.60;;;;;;5084756;28;20474;-63
2023/05/20 12:38:40;;;;;;;8.10;7.07;;;24.30;87.20;;;;;;5058805;28;20468;-63
2023/05/20 12:41:07;;;;;;;24.10;8.80;;;24.10;88.50;;;;;;5056169;28;20508;-63
2023/05/20 12:43:35;;;;;;;8.27;7.57;;;24.20;89.00;;;;;;5064706;28;20488;-63
2023/05/20 12:46:02;;;;;;;8.77;6.93;;;24.40;87.30;;;;;;5084685;28;20454;-63
2023/05/20 12:48:30;;;;;;;8.23;7.53;;;24.40;86.30;;;;;;5089809;27;20977;-63